Simmons Army Air Field
KFBG : now visible

Airfield :











YOU CAN JOIN US ON...

 
LOGIN :

Register | Disclaimer

   EN    FR    IT 

 









Legend :    VFR   Marginal VFR   IFR   Intensive IFR   Very Intensive IFR
Visi :
Ceiling :
>= 8 km
>= 3000ft
5 to 8 km
1000 to 3000 ft
1500m to 5 km
500 to 1000 ft
800 to 1500m
200 to 500 ft
< 800m
< 200 ft
Symbols :   Thunderstorms  Fog  Heavy snow  Heavy precipitations  Wind > 20 kt






- Airport Elevation : 244 ft


KFBG - Simmons Army Air Field

CURRENT METAR :
  • 271026Z AUTO 33004KT 1 5/8SM BR OVC002 07/06 A3015 RMK AO2 VIS 1 5/8V3 SLP213 $

EXPIRED METARs :
  • 270956Z AUTO 00000KT M M OVC002 07/07 A3015 RMK AO2 SLP213 T00660065 RVRNO $
  • 270912Z AUTO 00000KT M M OVC002 07/07 A3016 RMK AO2 PRESRR SLP217 RVRNO $
  • 270856Z AUTO 00000KT M M OVC002 06/06 A3014 RMK AO2 SLP210 T00640063 57017 RVRNO $
  • 270839Z AUTO 36003KT M M OVC002 07/06 A3014 RMK AO2 SLP210 58015 RVRNO $
  • 270756Z AUTO 33003KT M M OVC002 07/06 A3016 RMK AO2 SLP217 T00650064 RVRNO $

TAF TAF KFBG
Valid from the 27 at 10:00 until the 28 at 16:00 UTC


271000Z 2710/2816 VRB06KT 8000 BR OVC002 QNH3010INS
BECMG 2712/2713 VRB06KT 9999 NSW BKN006 QNH3012INS
BECMG 2714/2715 21009KT 9999 SCT010 QNH3015INS
BECMG 2715/2716 23012G18KT 9999 FEW025 QNH3015INS
BECMG 2722/2723 VRB06KT 9999 BKN050 QNH3017INS
BECMG 2805/2806 VRB06KT 8000 BR BKN010 QNH3016INS
BECMG 2813/2814 22012G18KT 9999 NSW SCT017 QNH3015INS TX20/2720Z TN07/2710Z
KZDC FIR / North America



MET'MAP, your aeronautical weather chart ! - Copyright ORBIFLY December 2007 - Disclaimer

ORBIFLY MET'MAP TEAM :

Programming & Development : Alexandra Zaïnal
Concept & original design : Baudouin d'Aumeries
Assistance for programming : Marc-Olivier Méhu
Technical & hardware support : Manuel Goepfert

Contact : metmap@orbifly.com




SOURCES & CREDITS :

   NOAA       Earth
Advisory